createdAt,value
2019-02-18T00:02:05.589Z,53.47
2019-02-18T00:12:11.126Z,52.50
2019-02-18T00:22:16.812Z,56.10
2019-02-18T00:32:22.344Z,53.73
2019-02-18T00:42:28.067Z,52.73
2019-02-18T00:52:33.540Z,55.03
2019-02-18T01:02:39.255Z,48.20
2019-02-18T01:12:44.859Z,48.67
2019-02-18T01:22:50.416Z,52.07
2019-02-18T01:32:55.985Z,49.73
2019-02-18T01:43:01.642Z,52.90
2019-02-18T01:53:07.229Z,50.07
2019-02-18T02:03:12.768Z,51.13
2019-02-18T02:13:32.761Z,49.83
2019-02-18T02:23:38.462Z,47.43
2019-02-18T02:33:45.885Z,43.10
2019-02-18T02:43:51.569Z,42.73
2019-02-18T02:53:57.167Z,42.77
2019-02-18T03:04:02.779Z,39.70
2019-02-18T03:14:08.384Z,38.87
2019-02-18T03:24:13.926Z,38.27
2019-02-18T03:34:27.863Z,36.70
2019-02-18T03:44:34.441Z,38.37
2019-02-18T03:54:40.142Z,36.07
2019-02-18T04:04:45.756Z,33.13
2019-02-18T04:14:51.267Z,32.87
2019-02-18T04:24:56.779Z,33.87
2019-02-18T04:35:02.421Z,33.83
2019-02-18T04:45:12.003Z,32.67
2019-02-18T04:55:17.547Z,34.27
2019-02-18T05:05:23.068Z,34.00
2019-02-18T05:15:28.634Z,33.40
2019-02-18T05:25:34.225Z,33.17
2019-02-18T05:35:39.835Z,32.07
2019-02-18T05:45:45.422Z,33.13
2019-02-18T05:55:51.064Z,36.80
2019-02-18T06:05:56.662Z,36.00
2019-02-18T06:16:02.134Z,34.90
2019-02-18T06:26:07.747Z,35.43
2019-02-18T06:36:13.284Z,38.43
2019-02-18T06:46:23.277Z,35.57
2019-02-18T06:56:33.524Z,35.93
2019-02-18T07:06:49.494Z,36.67
2019-02-18T07:16:55.027Z,36.13
2019-02-18T07:27:00.540Z,35.57
2019-02-18T07:37:06.024Z,33.17
2019-02-18T07:47:11.719Z,40.17
2019-02-18T07:57:17.284Z,32.63
2019-02-18T08:07:22.735Z,34.10
2019-02-18T08:17:28.205Z,34.17
2019-02-18T08:27:33.669Z,32.57
2019-02-18T08:37:39.243Z,33.53
2019-02-18T08:47:44.713Z,35.53
2019-02-18T08:57:50.235Z,36.33
2019-02-18T09:07:55.855Z,32.50
2019-02-18T09:18:01.410Z,31.80
2019-02-18T09:28:06.954Z,30.83
2019-02-18T09:38:23.784Z,29.00
2019-02-18T09:48:19.743Z,27.97
2019-02-18T09:58:25.250Z,27.47
2019-02-18T10:08:30.793Z,27.10
2019-02-18T10:18:36.437Z,28.83
2019-02-18T10:28:42.040Z,25.63
2019-02-18T10:38:47.615Z,25.10
2019-02-18T10:48:53.228Z,24.10
2019-02-18T10:58:58.779Z,25.27
2019-02-18T11:09:06.134Z,26.37
2019-02-18T11:19:11.697Z,24.93
2019-02-18T11:29:17.317Z,24.67
2019-02-18T11:39:24.455Z,25.60
2019-02-18T11:49:30.142Z,26.30
2019-02-18T11:59:35.909Z,26.73
2019-02-18T12:09:41.378Z,24.67
2019-02-18T12:19:46.979Z,24.23
2019-02-18T12:29:53.415Z,22.57
2019-02-18T12:39:59.115Z,23.57
2019-02-18T12:50:06.292Z,21.83
2019-02-18T13:00:14.113Z,22.50
2019-02-18T13:10:19.883Z,24.40
2019-02-18T13:20:25.445Z,20.17
2019-02-18T13:30:31.964Z,18.67
2019-02-18T13:40:37.559Z,18.87
2019-02-18T13:50:43.112Z,15.30
2019-02-18T14:00:48.635Z,18.03
2019-02-18T14:10:55.333Z,18.27
2019-02-18T14:21:00.919Z,15.87
2019-02-18T14:31:06.584Z,14.40
2019-02-18T14:41:12.583Z,15.17
2019-02-18T14:51:18.174Z,11.27
2019-02-18T15:01:23.776Z,11.30
2019-02-18T15:11:29.678Z,14.27
2019-02-18T15:21:35.275Z,15.47
2019-02-18T15:31:40.766Z,16.40
2019-02-18T15:41:46.876Z,19.53
2019-02-18T15:51:52.556Z,19.87
2019-02-18T16:01:58.099Z,22.47
2019-02-18T16:12:05.761Z,21.30
2019-02-18T16:22:11.381Z,20.33
2019-02-18T16:32:17.333Z,22.33
2019-02-18T16:42:22.804Z,30.83
2019-02-18T16:52:29.038Z,29.47
2019-02-18T17:02:34.756Z,31.53
2019-02-18T17:12:40.327Z,45.40
2019-02-18T17:22:47.117Z,45.93
2019-02-18T17:32:53.098Z,47.07
2019-02-18T17:42:59.104Z,44.07
2019-02-18T17:53:44.479Z,40.10
2019-02-18T18:03:50.304Z,38.97
2019-02-18T18:13:57.012Z,37.03
2019-02-18T18:24:03.625Z,40.03
2019-02-18T18:34:09.679Z,39.40
2019-02-18T18:44:15.815Z,37.97
2019-02-18T18:54:23.780Z,36.77
2019-02-18T19:04:29.833Z,38.50
2019-02-18T19:14:36.013Z,47.23
2019-02-18T19:24:42.212Z,72.03
2019-02-18T19:34:48.185Z,49.90
2019-02-18T19:44:54.394Z,45.33
2019-02-18T19:55:00.480Z,42.77
2019-02-18T20:05:08.587Z,46.33
2019-02-18T20:15:16.759Z,47.33
2019-02-18T20:25:22.772Z,44.67
2019-02-18T20:35:28.712Z,45.13
2019-02-18T20:45:34.727Z,43.17
2019-02-18T20:55:40.714Z,40.30
2019-02-18T21:05:46.785Z,45.10
2019-02-18T21:15:52.774Z,49.80
2019-02-18T21:26:00.196Z,46.13
2019-02-18T21:36:06.073Z,47.50
2019-02-18T21:46:11.904Z,46.87
2019-02-18T21:56:18.796Z,45.93
2019-02-18T22:06:24.405Z,47.37
2019-02-18T22:16:30.012Z,45.27
2019-02-18T22:26:35.770Z,49.93
2019-02-18T22:36:41.277Z,53.10
2019-02-18T22:46:46.791Z,50.47
2019-02-18T22:56:52.339Z,53.73
2019-02-18T23:06:57.939Z,54.40
2019-02-18T23:17:03.396Z,62.63
2019-02-18T23:27:08.914Z,69.33
2019-02-18T23:37:14.511Z,50.37
2019-02-18T23:47:20.091Z,50.60
2019-02-18T23:57:25.578Z,49.77
